sensor_id;sensor_type;location;lat;lon;timestamp;temperature;humidity
12720;DHT22;6424;48.520;11.228;2023-08-08T00:02:25;11.10;99.90
12720;DHT22;6424;48.520;11.228;2023-08-08T00:05:06;11.10;99.90
12720;DHT22;6424;48.520;11.228;2023-08-08T00:07:47;11.10;99.90
12720;DHT22;6424;48.520;11.228;2023-08-08T00:10:28;11.00;99.90
12720;DHT22;6424;48.520;11.228;2023-08-08T00:13:08;11.00;99.90
12720;DHT22;6424;48.520;11.228;2023-08-08T00:15:49;11.00;99.90
12720;DHT22;6424;48.520;11.228;2023-08-08T00:18:30;11.10;99.90
12720;DHT22;6424;48.520;11.228;2023-08-08T00:20:56;11.10;99.90
12720;DHT22;6424;48.520;11.228;2023-08-08T00:23:36;11.10;99.90
12720;DHT22;6424;48.520;11.228;2023-08-08T00:26:02;11.10;99.90
12720;DHT22;6424;48.520;11.228;2023-08-08T00:28:43;11.10;99.90
12720;DHT22;6424;48.520;11.228;2023-08-08T00:31:23;11.10;99.90
12720;DHT22;6424;48.520;11.228;2023-08-08T00:34:04;11.00;99.90
12720;DHT22;6424;48.520;11.228;2023-08-08T00:36:45;11.00;99.90
12720;DHT22;6424;48.520;11.228;2023-08-08T00:39:26;11.00;99.90
12720;DHT22;6424;48.520;11.228;2023-08-08T00:41:51;11.10;99.90
12720;DHT22;6424;48.520;11.228;2023-08-08T00:44:32;11.10;99.90
12720;DHT22;6424;48.520;11.228;2023-08-08T00:47:13;11.10;99.90
12720;DHT22;6424;48.520;11.228;2023-08-08T00:49:54;11.10;99.90
12720;DHT22;6424;48.520;11.228;2023-08-08T00:52:35;11.10;99.90
12720;DHT22;6424;48.520;11.228;2023-08-08T00:55:16;11.10;99.90
12720;DHT22;6424;48.520;11.228;2023-08-08T00:57:57;11.10;99.90
12720;DHT22;6424;48.520;11.228;2023-08-08T01:00:38;11.10;99.90
12720;DHT22;6424;48.520;11.228;2023-08-08T01:03:19;11.20;99.90
12720;DHT22;6424;48.520;11.228;2023-08-08T01:06:21;11.20;99.90
12720;DHT22;6424;48.520;11.228;2023-08-08T01:09:13;11.20;99.90
12720;DHT22;6424;48.520;11.228;2023-08-08T01:11:59;11.20;99.90
12720;DHT22;6424;48.520;11.228;2023-08-08T01:14:26;11.20;99.90
12720;DHT22;6424;48.520;11.228;2023-08-08T01:17:10;11.20;99.90
12720;DHT22;6424;48.520;11.228;2023-08-08T01:19:51;11.20;99.90
12720;DHT22;6424;48.520;11.228;2023-08-08T01:25:42;11.30;99.90
12720;DHT22;6424;48.520;11.228;2023-08-08T01:28:24;11.30;99.90
12720;DHT22;6424;48.520;11.228;2023-08-08T01:31:06;11.20;99.90
12720;DHT22;6424;48.520;11.228;2023-08-08T01:33:47;11.30;99.90
12720;DHT22;6424;48.520;11.228;2023-08-08T01:36:32;11.30;99.90
12720;DHT22;6424;48.520;11.228;2023-08-08T01:39:20;11.20;99.90
12720;DHT22;6424;48.520;11.228;2023-08-08T01:42:02;11.20;99.90
12720;DHT22;6424;48.520;11.228;2023-08-08T01:44:44;11.20;99.90
12720;DHT22;6424;48.520;11.228;2023-08-08T01:47:25;11.10;99.90
12720;DHT22;6424;48.520;11.228;2023-08-08T01:49:51;11.10;99.90
12720;DHT22;6424;48.520;11.228;2023-08-08T01:52:31;11.00;99.90
12720;DHT22;6424;48.520;11.228;2023-08-08T01:55:12;11.00;99.90
12720;DHT22;6424;48.520;11.228;2023-08-08T01:57:38;11.00;99.90
12720;DHT22;6424;48.520;11.228;2023-08-08T02:00:19;11.00;99.90
12720;DHT22;6424;48.520;11.228;2023-08-08T02:03:00;11.00;99.90
12720;DHT22;6424;48.520;11.228;2023-08-08T02:05:41;10.90;99.90
12720;DHT22;6424;48.520;11.228;2023-08-08T02:08:22;10.90;99.90
12720;DHT22;6424;48.520;11.228;2023-08-08T02:11:02;10.90;99.90
12720;DHT22;6424;48.520;11.228;2023-08-08T02:13:43;10.90;99.90
12720;DHT22;6424;48.520;11.228;2023-08-08T02:16:24;10.90;99.90
12720;DHT22;6424;48.520;11.228;2023-08-08T02:19:05;10.90;99.90
12720;DHT22;6424;48.520;11.228;2023-08-08T02:21:45;10.90;99.90
12720;DHT22;6424;48.520;11.228;2023-08-08T02:24:26;10.90;99.90
12720;DHT22;6424;48.520;11.228;2023-08-08T02:27:07;10.90;99.90
12720;DHT22;6424;48.520;11.228;2023-08-08T02:29:48;10.90;99.90
12720;DHT22;6424;48.520;11.228;2023-08-08T02:32:29;10.90;99.90
12720;DHT22;6424;48.520;11.228;2023-08-08T02:35:10;10.90;99.90
12720;DHT22;6424;48.520;11.228;2023-08-08T02:37:50;10.90;99.90
12720;DHT22;6424;48.520;11.228;2023-08-08T02:40:31;10.90;99.90
12720;DHT22;6424;48.520;11.228;2023-08-08T02:43:13;10.90;99.90
12720;DHT22;6424;48.520;11.228;2023-08-08T02:45:54;10.90;99.90
12720;DHT22;6424;48.520;11.228;2023-08-08T02:48:35;10.90;99.90
12720;DHT22;6424;48.520;11.228;2023-08-08T02:51:16;10.90;99.90
12720;DHT22;6424;48.520;11.228;2023-08-08T02:53:56;10.90;99.90
12720;DHT22;6424;48.520;11.228;2023-08-08T02:56:37;10.90;99.90
12720;DHT22;6424;48.520;11.228;2023-08-08T02:59:18;11.00;99.90
12720;DHT22;6424;48.520;11.228;2023-08-08T03:01:59;11.00;99.90
12720;DHT22;6424;48.520;11.228;2023-08-08T03:04:40;11.00;99.90
12720;DHT22;6424;48.520;11.228;2023-08-08T03:07:21;11.00;99.90
12720;DHT22;6424;48.520;11.228;2023-08-08T03:10:02;11.10;99.90
12720;DHT22;6424;48.520;11.228;2023-08-08T03:12:43;11.10;99.90
12720;DHT22;6424;48.520;11.228;2023-08-08T03:15:24;11.10;99.90
12720;DHT22;6424;48.520;11.228;2023-08-08T03:18:05;11.10;99.90
12720;DHT22;6424;48.520;11.228;2023-08-08T03:20:45;11.10;99.90
12720;DHT22;6424;48.520;11.228;2023-08-08T03:23:26;11.10;99.90
12720;DHT22;6424;48.520;11.228;2023-08-08T03:26:07;11.10;99.90
12720;DHT22;6424;48.520;11.228;2023-08-08T03:28:48;11.10;99.90
12720;DHT22;6424;48.520;11.228;2023-08-08T03:31:31;11.20;99.90
12720;DHT22;6424;48.520;11.228;2023-08-08T03:34:12;11.20;99.90
12720;DHT22;6424;48.520;11.228;2023-08-08T03:36:52;11.20;99.90
12720;DHT22;6424;48.520;11.228;2023-08-08T03:39:33;11.20;99.90
12720;DHT22;6424;48.520;11.228;2023-08-08T03:42:14;11.20;99.90
12720;DHT22;6424;48.520;11.228;2023-08-08T03:44:55;11.20;99.90
12720;DHT22;6424;48.520;11.228;2023-08-08T03:47:35;11.20;99.90
12720;DHT22;6424;48.520;11.228;2023-08-08T03:50:16;11.20;99.90
12720;DHT22;6424;48.520;11.228;2023-08-08T03:52:57;11.20;99.90
12720;DHT22;6424;48.520;11.228;2023-08-08T03:55:38;11.20;99.90
12720;DHT22;6424;48.520;11.228;2023-08-08T03:58:19;11.30;99.90
12720;DHT22;6424;48.520;11.228;2023-08-08T04:01:00;11.30;99.90
12720;DHT22;6424;48.520;11.228;2023-08-08T04:03:40;11.30;99.90
12720;DHT22;6424;48.520;11.228;2023-08-08T04:06:21;11.30;99.90
12720;DHT22;6424;48.520;11.228;2023-08-08T04:09:02;11.30;99.90
12720;DHT22;6424;48.520;11.228;2023-08-08T04:11:42;11.30;99.90
12720;DHT22;6424;48.520;11.228;2023-08-08T04:14:23;11.30;99.90
12720;DHT22;6424;48.520;11.228;2023-08-08T04:17:04;11.30;99.90
12720;DHT22;6424;48.520;11.228;2023-08-08T04:19:45;11.30;99.90
12720;DHT22;6424;48.520;11.228;2023-08-08T04:22:26;11.30;99.90
12720;DHT22;6424;48.520;11.228;2023-08-08T04:25:07;11.30;99.90
12720;DHT22;6424;48.520;11.228;2023-08-08T04:27:48;11.40;99.90
12720;DHT22;6424;48.520;11.228;2023-08-08T04:30:29;11.40;99.90
12720;DHT22;6424;48.520;11.228;2023-08-08T04:33:10;11.50;99.90
12720;DHT22;6424;48.520;11.228;2023-08-08T04:35:50;11.50;99.90
12720;DHT22;6424;48.520;11.228;2023-08-08T04:38:31;11.60;99.90
12720;DHT22;6424;48.520;11.228;2023-08-08T04:40:57;11.60;99.90
12720;DHT22;6424;48.520;11.228;2023-08-08T04:43:37;11.70;99.90
12720;DHT22;6424;48.520;11.228;2023-08-08T04:46:18;11.70;99.90
12720;DHT22;6424;48.520;11.228;2023-08-08T04:48:59;11.70;99.90
12720;DHT22;6424;48.520;11.228;2023-08-08T04:51:40;11.70;99.90
12720;DHT22;6424;48.520;11.228;2023-08-08T04:54:20;11.70;99.90
12720;DHT22;6424;48.520;11.228;2023-08-08T04:57:01;11.70;99.90
12720;DHT22;6424;48.520;11.228;2023-08-08T04:59:42;11.70;99.90
12720;DHT22;6424;48.520;11.228;2023-08-08T05:02:23;11.70;99.90
12720;DHT22;6424;48.520;11.228;2023-08-08T05:05:04;11.70;99.90
12720;DHT22;6424;48.520;11.228;2023-08-08T05:07:45;11.70;99.90
12720;DHT22;6424;48.520;11.228;2023-08-08T05:10:25;11.80;99.90
12720;DHT22;6424;48.520;11.228;2023-08-08T05:13:06;11.80;99.90
12720;DHT22;6424;48.520;11.228;2023-08-08T05:15:47;11.90;99.90
12720;DHT22;6424;48.520;11.228;2023-08-08T05:18:13;12.00;99.90
12720;DHT22;6424;48.520;11.228;2023-08-08T05:20:54;12.00;99.90
12720;DHT22;6424;48.520;11.228;2023-08-08T05:23:34;12.10;99.90
12720;DHT22;6424;48.520;11.228;2023-08-08T05:26:00;12.10;99.90
12720;DHT22;6424;48.520;11.228;2023-08-08T05:28:41;12.10;99.90
12720;DHT22;6424;48.520;11.228;2023-08-08T05:31:22;12.20;99.90
12720;DHT22;6424;48.520;11.228;2023-08-08T05:34:03;12.80;99.90
12720;DHT22;6424;48.520;11.228;2023-08-08T05:36:43;14.10;99.90
12720;DHT22;6424;48.520;11.228;2023-08-08T05:39:24;15.50;99.90
12720;DHT22;6424;48.520;11.228;2023-08-08T05:42:05;16.80;99.90
12720;DHT22;6424;48.520;11.228;2023-08-08T05:44:46;18.00;99.90
12720;DHT22;6424;48.520;11.228;2023-08-08T05:47:27;18.70;99.90
12720;DHT22;6424;48.520;11.228;2023-08-08T05:50:08;19.10;99.90
12720;DHT22;6424;48.520;11.228;2023-08-08T05:52:48;19.60;99.90
12720;DHT22;6424;48.520;11.228;2023-08-08T05:55:29;20.20;99.90
12720;DHT22;6424;48.520;11.228;2023-08-08T05:58:10;20.50;99.90
12720;DHT22;6424;48.520;11.228;2023-08-08T06:00:36;20.70;99.90
12720;DHT22;6424;48.520;11.228;2023-08-08T06:03:17;20.90;99.90
12720;DHT22;6424;48.520;11.228;2023-08-08T06:05:58;21.10;99.90
12720;DHT22;6424;48.520;11.228;2023-08-08T06:08:38;21.10;99.90
12720;DHT22;6424;48.520;11.228;2023-08-08T06:11:19;21.10;99.90
12720;DHT22;6424;48.520;11.228;2023-08-08T06:14:01;21.00;99.90
12720;DHT22;6424;48.520;11.228;2023-08-08T06:16:42;20.50;99.90
12720;DHT22;6424;48.520;11.228;2023-08-08T06:19:23;20.00;99.90
12720;DHT22;6424;48.520;11.228;2023-08-08T06:22:04;19.70;99.90
12720;DHT22;6424;48.520;11.228;2023-08-08T06:24:44;19.80;99.90
12720;DHT22;6424;48.520;11.228;2023-08-08T06:27:25;19.40;99.90
12720;DHT22;6424;48.520;11.228;2023-08-08T06:30:06;19.20;99.90
12720;DHT22;6424;48.520;11.228;2023-08-08T06:32:48;18.70;99.90
12720;DHT22;6424;48.520;11.228;2023-08-08T06:35:29;18.50;99.90
12720;DHT22;6424;48.520;11.228;2023-08-08T06:38:10;18.30;99.90
12720;DHT22;6424;48.520;11.228;2023-08-08T06:40:51;18.50;99.90
12720;DHT22;6424;48.520;11.228;2023-08-08T06:43:32;18.70;99.90
12720;DHT22;6424;48.520;11.228;2023-08-08T06:46:12;18.60;99.90
12720;DHT22;6424;48.520;11.228;2023-08-08T06:48:53;18.40;99.90
12720;DHT22;6424;48.520;11.228;2023-08-08T06:51:39;18.40;99.90
12720;DHT22;6424;48.520;11.228;2023-08-08T06:54:20;18.50;99.90
12720;DHT22;6424;48.520;11.228;2023-08-08T06:57:01;18.60;99.90
12720;DHT22;6424;48.520;11.228;2023-08-08T06:59:42;18.50;99.90
12720;DHT22;6424;48.520;11.228;2023-08-08T07:02:23;18.20;99.90
12720;DHT22;6424;48.520;11.228;2023-08-08T07:05:04;17.80;99.90
12720;DHT22;6424;48.520;11.228;2023-08-08T07:07:45;17.50;99.90
12720;DHT22;6424;48.520;11.228;2023-08-08T07:10:27;17.20;99.90
12720;DHT22;6424;48.520;11.228;2023-08-08T07:13:08;17.10;99.90
12720;DHT22;6424;48.520;11.228;2023-08-08T07:15:49;16.90;99.90
12720;DHT22;6424;48.520;11.228;2023-08-08T07:18:30;16.70;99.90
12720;DHT22;6424;48.520;11.228;2023-08-08T07:21:10;16.50;99.90
12720;DHT22;6424;48.520;11.228;2023-08-08T07:23:51;16.40;99.90
12720;DHT22;6424;48.520;11.228;2023-08-08T07:26:32;16.30;99.90
12720;DHT22;6424;48.520;11.228;2023-08-08T07:29:13;16.30;99.90
12720;DHT22;6424;48.520;11.228;2023-08-08T07:31:54;16.10;99.90
12720;DHT22;6424;48.520;11.228;2023-08-08T07:34:35;16.10;99.90
12720;DHT22;6424;48.520;11.228;2023-08-08T07:37:16;16.30;99.90
12720;DHT22;6424;48.520;11.228;2023-08-08T07:39:56;17.00;99.90
12720;DHT22;6424;48.520;11.228;2023-08-08T07:42:37;17.50;99.90
12720;DHT22;6424;48.520;11.228;2023-08-08T07:45:18;17.60;99.90
12720;DHT22;6424;48.520;11.228;2023-08-08T07:47:59;17.50;99.90
12720;DHT22;6424;48.520;11.228;2023-08-08T07:50:39;17.20;99.90
12720;DHT22;6424;48.520;11.228;2023-08-08T07:53:20;17.00;99.90
12720;DHT22;6424;48.520;11.228;2023-08-08T07:56:01;16.80;99.90
12720;DHT22;6424;48.520;11.228;2023-08-08T07:58:42;17.00;99.90
12720;DHT22;6424;48.520;11.228;2023-08-08T08:01:23;17.30;99.90
12720;DHT22;6424;48.520;11.228;2023-08-08T08:04:03;17.80;99.90
12720;DHT22;6424;48.520;11.228;2023-08-08T08:06:44;18.20;99.90
12720;DHT22;6424;48.520;11.228;2023-08-08T08:09:25;18.50;99.90
12720;DHT22;6424;48.520;11.228;2023-08-08T08:12:06;18.80;99.90
12720;DHT22;6424;48.520;11.228;2023-08-08T08:14:47;19.00;99.90
12720;DHT22;6424;48.520;11.228;2023-08-08T08:17:28;19.30;99.90
12720;DHT22;6424;48.520;11.228;2023-08-08T08:20:09;19.60;99.90
12720;DHT22;6424;48.520;11.228;2023-08-08T08:22:52;19.90;99.90
12720;DHT22;6424;48.520;11.228;2023-08-08T08:25:33;20.10;99.90
12720;DHT22;6424;48.520;11.228;2023-08-08T08:28:14;20.00;99.90
12720;DHT22;6424;48.520;11.228;2023-08-08T08:30:40;19.80;99.90
12720;DHT22;6424;48.520;11.228;2023-08-08T08:33:21;19.70;99.90
12720;DHT22;6424;48.520;11.228;2023-08-08T08:36:02;19.60;99.90
12720;DHT22;6424;48.520;11.228;2023-08-08T08:38:43;19.50;99.90
12720;DHT22;6424;48.520;11.228;2023-08-08T08:41:26;19.60;99.90
12720;DHT22;6424;48.520;11.228;2023-08-08T08:44:08;19.80;99.90
12720;DHT22;6424;48.520;11.228;2023-08-08T08:46:35;19.80;99.90
12720;DHT22;6424;48.520;11.228;2023-08-08T08:49:17;19.80;99.90
12720;DHT22;6424;48.520;11.228;2023-08-08T08:51:59;19.80;99.90
12720;DHT22;6424;48.520;11.228;2023-08-08T08:54:45;20.00;99.90
12720;DHT22;6424;48.520;11.228;2023-08-08T08:57:26;20.20;99.90
12720;DHT22;6424;48.520;11.228;2023-08-08T09:00:08;20.40;99.90
12720;DHT22;6424;48.520;11.228;2023-08-08T09:02:49;20.60;99.90
12720;DHT22;6424;48.520;11.228;2023-08-08T09:05:30;20.60;99.90
12720;DHT22;6424;48.520;11.228;2023-08-08T09:07:57;20.60;99.90
12720;DHT22;6424;48.520;11.228;2023-08-08T09:10:38;20.60;99.90
12720;DHT22;6424;48.520;11.228;2023-08-08T09:13:04;20.40;99.90
12720;DHT22;6424;48.520;11.228;2023-08-08T09:15:33;20.30;99.90
12720;DHT22;6424;48.520;11.228;2023-08-08T09:18:14;20.40;99.90
12720;DHT22;6424;48.520;11.228;2023-08-08T09:20:55;20.60;99.20
12720;DHT22;6424;48.520;11.228;2023-08-08T09:23:37;20.70;99.90
12720;DHT22;6424;48.520;11.228;2023-08-08T09:26:19;20.70;99.50
12720;DHT22;6424;48.520;11.228;2023-08-08T09:29:00;20.70;99.80
12720;DHT22;6424;48.520;11.228;2023-08-08T09:31:41;20.70;99.60
12720;DHT22;6424;48.520;11.228;2023-08-08T09:34:25;20.70;98.20
12720;DHT22;6424;48.520;11.228;2023-08-08T09:37:06;20.70;99.90
12720;DHT22;6424;48.520;11.228;2023-08-08T09:39:56;20.90;97.60
12720;DHT22;6424;48.520;11.228;2023-08-08T09:42:37;21.00;98.80
12720;DHT22;6424;48.520;11.228;2023-08-08T09:45:05;21.00;98.60
12720;DHT22;6424;48.520;11.228;2023-08-08T09:47:46;21.10;98.10
12720;DHT22;6424;48.520;11.228;2023-08-08T09:50:28;21.10;97.10
12720;DHT22;6424;48.520;11.228;2023-08-08T09:53:09;21.00;96.00
12720;DHT22;6424;48.520;11.228;2023-08-08T09:55:50;20.90;97.20
12720;DHT22;6424;48.520;11.228;2023-08-08T09:58:32;20.90;96.70
12720;DHT22;6424;48.520;11.228;2023-08-08T10:01:13;21.00;97.20
12720;DHT22;6424;48.520;11.228;2023-08-08T10:03:55;21.00;96.20
12720;DHT22;6424;48.520;11.228;2023-08-08T10:06:36;21.10;96.20
12720;DHT22;6424;48.520;11.228;2023-08-08T10:09:17;21.00;94.30
12720;DHT22;6424;48.520;11.228;2023-08-08T10:11:58;20.80;95.40
12720;DHT22;6424;48.520;11.228;2023-08-08T10:14:42;20.90;95.30
12720;DHT22;6424;48.520;11.228;2023-08-08T10:17:23;21.10;94.20
12720;DHT22;6424;48.520;11.228;2023-08-08T10:20:05;21.10;92.80
12720;DHT22;6424;48.520;11.228;2023-08-08T10:22:53;21.20;94.20
12720;DHT22;6424;48.520;11.228;2023-08-08T10:25:35;21.40;93.50
12720;DHT22;6424;48.520;11.228;2023-08-08T10:28:19;21.50;92.60
12720;DHT22;6424;48.520;11.228;2023-08-08T10:31:01;21.50;91.60
12720;DHT22;6424;48.520;11.228;2023-08-08T10:33:41;21.30;91.60
12720;DHT22;6424;48.520;11.228;2023-08-08T10:36:08;21.20;91.90
12720;DHT22;6424;48.520;11.228;2023-08-08T10:41:22;21.20;92.70
12720;DHT22;6424;48.520;11.228;2023-08-08T10:44:09;21.20;92.00
12720;DHT22;6424;48.520;11.228;2023-08-08T10:46:51;21.40;92.40
12720;DHT22;6424;48.520;11.228;2023-08-08T10:49:32;21.60;92.70
12720;DHT22;6424;48.520;11.228;2023-08-08T10:52:14;21.70;90.50
12720;DHT22;6424;48.520;11.228;2023-08-08T10:54:55;21.60;91.10
12720;DHT22;6424;48.520;11.228;2023-08-08T10:57:36;21.40;90.30
12720;DHT22;6424;48.520;11.228;2023-08-08T11:00:17;21.20;89.80
12720;DHT22;6424;48.520;11.228;2023-08-08T11:02:59;21.00;91.10
12720;DHT22;6424;48.520;11.228;2023-08-08T11:05:40;20.80;91.20
12720;DHT22;6424;48.520;11.228;2023-08-08T11:08:10;20.60;91.00
12720;DHT22;6424;48.520;11.228;2023-08-08T11:10:52;20.50;92.00
12720;DHT22;6424;48.520;11.228;2023-08-08T11:13:18;20.50;92.80
12720;DHT22;6424;48.520;11.228;2023-08-08T11:15:44;20.70;93.00
12720;DHT22;6424;48.520;11.228;2023-08-08T11:18:25;21.00;92.20
12720;DHT22;6424;48.520;11.228;2023-08-08T11:20:52;21.30;92.10
12720;DHT22;6424;48.520;11.228;2023-08-08T11:23:33;21.50;91.90
12720;DHT22;6424;48.520;11.228;2023-08-08T11:26:03;21.60;91.00
12720;DHT22;6424;48.520;11.228;2023-08-08T11:28:51;21.70;91.80
12720;DHT22;6424;48.520;11.228;2023-08-08T11:31:34;22.00;92.20
12720;DHT22;6424;48.520;11.228;2023-08-08T11:34:00;22.10;90.70
12720;DHT22;6424;48.520;11.228;2023-08-08T11:36:41;22.00;90.80
12720;DHT22;6424;48.520;11.228;2023-08-08T11:39:22;21.90;90.50
12720;DHT22;6424;48.520;11.228;2023-08-08T11:42:03;21.80;91.60
12720;DHT22;6424;48.520;11.228;2023-08-08T11:44:44;22.00;90.80
12720;DHT22;6424;48.520;11.228;2023-08-08T11:47:25;22.20;90.50
12720;DHT22;6424;48.520;11.228;2023-08-08T11:49:51;22.40;89.10
12720;DHT22;6424;48.520;11.228;2023-08-08T11:52:42;22.40;88.70
12720;DHT22;6424;48.520;11.228;2023-08-08T11:55:30;22.30;89.20
12720;DHT22;6424;48.520;11.228;2023-08-08T11:58:14;22.00;87.40
12720;DHT22;6424;48.520;11.228;2023-08-08T12:00:56;21.80;90.10
12720;DHT22;6424;48.520;11.228;2023-08-08T12:03:39;21.90;90.40
12720;DHT22;6424;48.520;11.228;2023-08-08T12:06:20;21.80;87.50
12720;DHT22;6424;48.520;11.228;2023-08-08T12:08:47;21.60;87.40
12720;DHT22;6424;48.520;11.228;2023-08-08T12:11:28;21.40;86.90
12720;DHT22;6424;48.520;11.228;2023-08-08T13:00:13;20.90;90.10
12720;DHT22;6424;48.520;11.228;2023-08-08T13:02:54;20.90;90.30
12720;DHT22;6424;48.520;11.228;2023-08-08T13:05:35;20.90;90.60
12720;DHT22;6424;48.520;11.228;2023-08-08T13:08:16;20.90;89.70
12720;DHT22;6424;48.520;11.228;2023-08-08T13:10:42;20.80;88.50
12720;DHT22;6424;48.520;11.228;2023-08-08T13:13:08;20.70;88.60
12720;DHT22;6424;48.520;11.228;2023-08-08T13:15:48;20.70;89.40
12720;DHT22;6424;48.520;11.228;2023-08-08T13:18:29;20.90;87.50
12720;DHT22;6424;48.520;11.228;2023-08-08T13:21:10;21.00;86.60
12720;DHT22;6424;48.520;11.228;2023-08-08T13:23:36;21.00;88.30
12720;DHT22;6424;48.520;11.228;2023-08-08T13:26:17;21.00;90.60
12720;DHT22;6424;48.520;11.228;2023-08-08T13:28:58;21.10;90.50
12720;DHT22;6424;48.520;11.228;2023-08-08T13:31:38;21.00;88.50
12720;DHT22;6424;48.520;11.228;2023-08-08T13:34:19;21.00;88.70
12720;DHT22;6424;48.520;11.228;2023-08-08T13:37:00;21.20;90.00
12720;DHT22;6424;48.520;11.228;2023-08-08T13:39:41;21.50;87.80
12720;DHT22;6424;48.520;11.228;2023-08-08T13:42:22;21.60;86.60
12720;DHT22;6424;48.520;11.228;2023-08-08T13:45:03;21.50;85.80
12720;DHT22;6424;48.520;11.228;2023-08-08T13:47:44;21.50;85.40
12720;DHT22;6424;48.520;11.228;2023-08-08T13:50:24;21.40;86.90
12720;DHT22;6424;48.520;11.228;2023-08-08T13:53:05;21.40;85.50
12720;DHT22;6424;48.520;11.228;2023-08-08T13:55:46;21.60;86.10
12720;DHT22;6424;48.520;11.228;2023-08-08T13:58:27;21.80;84.20
12720;DHT22;6424;48.520;11.228;2023-08-08T14:01:08;22.00;84.20
12720;DHT22;6424;48.520;11.228;2023-08-08T14:03:48;22.10;82.60
12720;DHT22;6424;48.520;11.228;2023-08-08T14:06:29;22.30;81.70
12720;DHT22;6424;48.520;11.228;2023-08-08T14:09:11;22.30;80.20
12720;DHT22;6424;48.520;11.228;2023-08-08T14:11:52;22.30;80.50
12720;DHT22;6424;48.520;11.228;2023-08-08T14:14:32;22.30;80.60
12720;DHT22;6424;48.520;11.228;2023-08-08T14:16:58;22.20;79.40
12720;DHT22;6424;48.520;11.228;2023-08-08T14:19:39;22.10;79.20
12720;DHT22;6424;48.520;11.228;2023-08-08T14:22:20;22.00;80.20
12720;DHT22;6424;48.520;11.228;2023-08-08T14:25:01;21.80;80.80
12720;DHT22;6424;48.520;11.228;2023-08-08T14:27:42;21.60;81.00
12720;DHT22;6424;48.520;11.228;2023-08-08T14:30:23;21.60;81.80
12720;DHT22;6424;48.520;11.228;2023-08-08T14:32:51;21.60;82.80
12720;DHT22;6424;48.520;11.228;2023-08-08T14:35:32;21.70;81.60
12720;DHT22;6424;48.520;11.228;2023-08-08T14:38:13;21.70;82.50
12720;DHT22;6424;48.520;11.228;2023-08-08T14:40:54;21.90;81.80
12720;DHT22;6424;48.520;11.228;2023-08-08T14:43:20;22.10;82.30
12720;DHT22;6424;48.520;11.228;2023-08-08T14:46:01;22.20;80.00
12720;DHT22;6424;48.520;11.228;2023-08-08T14:48:41;22.20;80.00
12720;DHT22;6424;48.520;11.228;2023-08-08T14:51:23;22.20;81.00
12720;DHT22;6424;48.520;11.228;2023-08-08T14:53:49;22.20;79.30
12720;DHT22;6424;48.520;11.228;2023-08-08T14:56:29;22.10;77.90
12720;DHT22;6424;48.520;11.228;2023-08-08T14:59:10;22.10;79.90
12720;DHT22;6424;48.520;11.228;2023-08-08T15:01:52;22.10;79.40
12720;DHT22;6424;48.520;11.228;2023-08-08T15:04:32;22.10;77.00
12720;DHT22;6424;48.520;11.228;2023-08-08T15:07:13;22.00;75.60
12720;DHT22;6424;48.520;11.228;2023-08-08T15:09:54;22.00;75.00
12720;DHT22;6424;48.520;11.228;2023-08-08T15:12:35;22.00;73.90
12720;DHT22;6424;48.520;11.228;2023-08-08T15:15:02;21.90;71.40
12720;DHT22;6424;48.520;11.228;2023-08-08T15:17:44;21.90;73.00
12720;DHT22;6424;48.520;11.228;2023-08-08T15:20:25;21.80;74.60
12720;DHT22;6424;48.520;11.228;2023-08-08T15:23:06;21.80;76.30
12720;DHT22;6424;48.520;11.228;2023-08-08T15:25:48;21.80;77.10
12720;DHT22;6424;48.520;11.228;2023-08-08T15:28:29;22.00;77.40
12720;DHT22;6424;48.520;11.228;2023-08-08T15:31:10;22.20;76.40
12720;DHT22;6424;48.520;11.228;2023-08-08T15:33:51;22.30;77.70
12720;DHT22;6424;48.520;11.228;2023-08-08T15:36:31;22.20;75.60
12720;DHT22;6424;48.520;11.228;2023-08-08T15:39:12;22.00;77.50
12720;DHT22;6424;48.520;11.228;2023-08-08T15:41:38;21.80;76.80
12720;DHT22;6424;48.520;11.228;2023-08-08T15:44:19;21.60;77.80
12720;DHT22;6424;48.520;11.228;2023-08-08T15:46:44;21.40;78.90
12720;DHT22;6424;48.520;11.228;2023-08-08T15:49:25;21.20;79.70
12720;DHT22;6424;48.520;11.228;2023-08-08T15:52:06;20.90;79.50
12720;DHT22;6424;48.520;11.228;2023-08-08T15:54:46;20.80;79.70
12720;DHT22;6424;48.520;11.228;2023-08-08T15:57:27;20.70;81.90
12720;DHT22;6424;48.520;11.228;2023-08-08T16:00:08;20.50;81.10
12720;DHT22;6424;48.520;11.228;2023-08-08T16:02:50;20.40;83.70
12720;DHT22;6424;48.520;11.228;2023-08-08T16:05:31;20.20;82.20
12720;DHT22;6424;48.520;11.228;2023-08-08T16:08:12;20.20;83.50
12720;DHT22;6424;48.520;11.228;2023-08-08T16:10:53;20.10;84.20
12720;DHT22;6424;48.520;11.228;2023-08-08T16:13:34;20.10;83.40
12720;DHT22;6424;48.520;11.228;2023-08-08T16:16:00;20.10;84.60
12720;DHT22;6424;48.520;11.228;2023-08-08T16:18:28;20.20;84.60
12720;DHT22;6424;48.520;11.228;2023-08-08T16:21:08;20.20;84.70
12720;DHT22;6424;48.520;11.228;2023-08-08T16:23:49;20.30;85.20
12720;DHT22;6424;48.520;11.228;2023-08-08T16:26:30;20.30;85.80
12720;DHT22;6424;48.520;11.228;2023-08-08T16:29:10;20.20;86.20
12720;DHT22;6424;48.520;11.228;2023-08-08T16:31:51;20.20;86.50
12720;DHT22;6424;48.520;11.228;2023-08-08T16:34:32;20.20;85.90
12720;DHT22;6424;48.520;11.228;2023-08-08T16:37:13;20.10;87.30
12720;DHT22;6424;48.520;11.228;2023-08-08T16:39:55;20.00;87.60
12720;DHT22;6424;48.520;11.228;2023-08-08T16:42:35;19.90;87.80
12720;DHT22;6424;48.520;11.228;2023-08-08T16:45:16;19.80;88.90
12720;DHT22;6424;48.520;11.228;2023-08-08T16:47:57;19.80;88.60
12720;DHT22;6424;48.520;11.228;2023-08-08T16:50:38;19.70;89.00
12720;DHT22;6424;48.520;11.228;2023-08-08T16:53:18;19.60;90.00
12720;DHT22;6424;48.520;11.228;2023-08-08T16:55:59;19.50;90.40
12720;DHT22;6424;48.520;11.228;2023-08-08T16:58:43;19.50;90.50
12720;DHT22;6424;48.520;11.228;2023-08-08T17:01:24;19.40;91.00
12720;DHT22;6424;48.520;11.228;2023-08-08T17:04:05;19.40;90.90
12720;DHT22;6424;48.520;11.228;2023-08-08T17:06:46;19.40;91.10
12720;DHT22;6424;48.520;11.228;2023-08-08T17:09:26;19.40;91.40
12720;DHT22;6424;48.520;11.228;2023-08-08T17:12:07;19.40;91.90
12720;DHT22;6424;48.520;11.228;2023-08-08T17:14:48;19.40;91.70
12720;DHT22;6424;48.520;11.228;2023-08-08T17:17:14;19.40;91.90
12720;DHT22;6424;48.520;11.228;2023-08-08T17:19:55;19.40;92.60
12720;DHT22;6424;48.520;11.228;2023-08-08T17:22:36;19.40;92.70
12720;DHT22;6424;48.520;11.228;2023-08-08T17:25:17;19.30;92.20
12720;DHT22;6424;48.520;11.228;2023-08-08T17:27:58;19.20;91.70
12720;DHT22;6424;48.520;11.228;2023-08-08T17:30:39;19.10;91.20
12720;DHT22;6424;48.520;11.228;2023-08-08T17:33:19;19.10;91.30
12720;DHT22;6424;48.520;11.228;2023-08-08T17:36:00;19.10;91.60
12720;DHT22;6424;48.520;11.228;2023-08-08T17:38:42;19.00;92.20
12720;DHT22;6424;48.520;11.228;2023-08-08T17:41:23;18.90;92.00